Jeffersonville, OH (43128)

12:14 PM EDT on September 01, 2015 (GMT -0400)
Rosemoor | | Change Station
CLOSE
Current Station
Personal Weather Station
Location: Jamestown, OH
Elevation: 1063 ft
Nearby Weather Stations

Elev 1063 ft 39.63 °N, 83.66 °W | Updated 26 seconds ago

Partly Cloudy
Partly Cloudy
86.7 °F
Feels Like 91 °F
N
2.2
Wind Variable Wind from NNW
Gusts 3.8 mph

Today
High -- | Low -- °F
--% Chance of Precip.
Yesterday
High -- | Low -- °F
Precip. -- in
7:02 AM 8:05 PM
Waning Gibbous, 88% visible
Pressure 30.15 in
Visibility 10.0 miles
Clouds Few 3200 ft
Heat Index 91 °F
Dew Point 70 °F
Humidity 57%
Rainfall 0.00 in
Snow Depth Not available.
UV 7 out of 12
Pollen 10.40 out of 12
Air Quality Not available.
Flu Activity Not available.
METAR KSGH 011556Z AUTO 30003KT 10SM FEW032 28/22 A3017 RMK AO2 T02770216 SLP209
Pressure 30.15 in
Visibility 10.0 miles
Clouds Few 3200 ft
Heat Index 91 °F
Dew Point 70 °F
Humidity 57%
Rainfall 0.00 in
Snow Depth Not available.
UV 7 out of 12
Pollen 10.40 out of 12
Air Quality Not available.
Flu Activity Not available.
METAR KSGH 011556Z AUTO 30003KT 10SM FEW032 28/22 A3017 RMK AO2 T02770216 SLP209

10-Day Weather Forecast

×

Almanac

Astronomy

Sep. 01, 2015 Rise Set
Actual Time
Civil Twilight
Nautical Twilight
Astronomical Twilight
Moon
Length of Visible Light
Length of Day
Tomorrow will be .
, % of the Moon is Illuminated

Today's Extremes

State Highs State Lows

Community

WunderPhotos

Upload Photos

1,851,544 photos uploaded!

WunderBlogs® & News

Nearby

Air Quality

  Air Quality AQ Index Pollutant
Not available.

Snow Depth

Station Depth Elevation

Earthquake Activity

City Distance Mag. Time & Date
Minimum magnitude displayed is 2.5.

Coastal Water Temperatures

Place Temperature

Stations

Nearby Weather Stations

Station Location Temp. Windchill Dew Point Humidity Wind Precip. Elev Updated Type